Time;durP1;ratioP1;P1;durP2;ratioP2;P2;SDS_P1;SDS_P2;PMS_P1;PMS_P2;Temp;Humidity;BMP_temperature;BMP_pressure;BME280_temperature;BME280_humidity;BME280_pressure;Samples;Min_cycle;Max_cycle;Signal;HPM_P1;HPM_P2
2022/08/02 06:41:41;;;;;;;9.02;2.80;;;16.20;99.90;;;;;;4847457;29;20188;-86
2022/08/02 06:44:28;;;;;;;6.63;2.20;;;16.20;99.90;;;;;;4832153;29;20133;-86
2022/08/02 06:47:19;;;;;;;8.45;2.00;;;16.20;99.90;;;;;;4849232;24;20058;-86
2022/08/02 06:49:57;;;;;;;7.03;2.90;;;16.40;99.90;;;;;;4843992;29;20133;-86
2022/08/02 06:52:43;;;;;;;8.43;2.00;;;16.40;99.90;;;;;;4844654;29;20183;-86
2022/08/02 06:55:28;;;;;;;7.20;2.50;;;15.60;99.90;;;;;;4843992;29;20118;-86
2022/08/02 06:57:54;;;;;;;8.90;2.17;;;16.70;99.90;;;;;;4843972;29;20046;-86
2022/08/02 07:00:20;;;;;;;10.23;3.10;;;16.80;99.90;;;;;;4843156;29;20053;-86
2022/08/02 07:03:07;;;;;;;4.72;2.00;;;16.90;99.90;;;;;;4844863;29;20085;-86
2022/08/02 07:05:34;;;;;;;6.22;1.90;;;17.70;99.90;;;;;;4845160;29;20054;-86
2022/08/02 07:11:11;;;;;;;8.35;2.30;;;17.20;99.90;;;;;;4843681;29;20057;-86
2022/08/02 07:13:37;;;;;;;6.38;1.92;;;17.30;99.90;;;;;;4842855;29;20061;-85
2022/08/02 07:16:21;;;;;;;4.43;1.58;;;17.20;99.90;;;;;;4843465;29;20054;-86
2022/08/02 07:18:47;;;;;;;7.80;1.70;;;17.20;99.90;;;;;;4844712;29;20090;-86
2022/08/02 07:21:12;;;;;;;5.53;1.95;;;17.30;99.90;;;;;;4843887;29;20108;-86
2022/08/02 07:23:38;;;;;;;6.28;2.10;;;17.40;99.90;;;;;;4844568;29;20046;-86
2022/08/02 07:26:19;;;;;;;12.25;2.63;;;17.40;99.90;;;;;;4843504;29;20057;-87
2022/08/02 07:29:02;;;;;;;5.15;1.42;;;17.50;99.90;;;;;;4842717;29;20049;-85
2022/08/02 07:31:28;;;;;;;5.65;1.60;;;17.50;99.90;;;;;;4844796;29;20054;-86
2022/08/02 07:33:54;;;;;;;5.07;1.77;;;17.60;99.90;;;;;;4828079;29;20129;-85
2022/08/02 07:36:41;;;;;;;6.20;1.92;;;17.70;99.90;;;;;;4842424;29;20486;-86
2022/08/02 07:39:07;;;;;;;7.55;1.98;;;17.80;99.90;;;;;;4827883;29;20053;-85
2022/08/02 07:41:42;;;;;;;4.85;1.30;;;17.80;99.90;;;;;;4842462;29;20054;-86
2022/08/02 07:44:08;;;;;;;7.60;1.60;;;17.90;99.90;;;;;;4827685;29;20114;-85
2022/08/02 07:46:41;;;;;;;5.93;1.13;;;17.20;99.90;;;;;;4843014;29;20062;-85
2022/08/02 07:49:06;;;;;;;5.25;1.23;;;18.00;99.90;;;;;;4842321;29;20053;-86
2022/08/02 07:51:34;;;;;;;2.95;0.93;;;18.10;99.90;;;;;;4843290;29;20402;-85
2022/08/02 07:54:06;;;;;;;6.00;1.42;;;18.20;99.90;;;;;;4842830;29;20054;-86
2022/08/02 07:56:32;;;;;;;7.22;1.88;;;18.20;99.90;;;;;;4826577;29;20478;-86
2022/08/02 07:58:57;;;;;;;5.18;1.20;;;18.40;99.90;;;;;;4827747;29;20122;-87
2022/08/02 08:01:23;;;;;;;4.15;1.35;;;18.40;99.90;;;;;;4842739;29;20497;-86
2022/08/02 08:03:52;;;;;;;5.90;1.25;;;18.40;99.90;;;;;;4841633;29;20136;-87
2022/08/02 08:06:18;;;;;;;2.97;1.25;;;18.60;99.90;;;;;;4842693;29;20038;-86
2022/08/02 08:08:50;;;;;;;4.45;1.40;;;18.60;99.90;;;;;;4827481;29;20061;-86
2022/08/02 08:11:16;;;;;;;3.85;1.13;;;18.80;99.90;;;;;;4841675;29;20042;-86
2022/08/02 08:13:57;;;;;;;4.80;1.30;;;18.90;99.90;;;;;;4838351;29;20057;-85
2022/08/02 08:16:40;;;;;;;6.47;1.63;;;18.90;99.90;;;;;;4842872;29;20447;-87
2022/08/02 08:19:06;;;;;;;6.57;1.30;;;19.00;99.90;;;;;;4857850;29;20146;-86
2022/08/02 08:21:34;;;;;;;4.60;1.50;;;18.90;99.90;;;;;;4827462;29;20111;-86
2022/08/02 08:40:17;;;;;;;5.10;1.17;;;19.50;99.90;;;;;;5561431;24;20028;-90
2022/08/02 09:12:23;;;;;;;4.57;1.20;;;20.80;99.90;;;;;;4862279;29;20114;-93
2022/08/02 09:15:52;;;;;;;3.10;1.25;;;21.00;99.90;;;;;;4787215;29;20130;-91
2022/08/02 09:29:38;;;;;;;4.85;1.40;;;20.90;99.90;;;;;;4733202;30;20113;-90
2022/08/02 09:40:12;;;;;;;2.47;0.98;;;21.20;99.90;;;;;;4681453;30;20058;-91
2022/08/02 09:47:40;;;;;;;5.38;1.42;;;20.40;99.90;;;;;;4650006;30;20054;-90
2022/08/02 10:01:53;;;;;;;11.68;2.90;;;22.20;99.90;;;;;;5018286;23;20513;-90
2022/08/02 10:05:32;;;;;;;;;;;;;;;;;;;;;
2022/08/02 10:11:01;;;;;;;4.35;2.55;;;22.80;99.90;;;;;;4857533;29;20060;-90
2022/08/02 10:14:12;;;;;;;8.65;2.72;;;22.40;99.90;;;;;;4838785;29;20089;-94
2022/08/02 10:16:44;;;;;;;7.55;2.50;;;22.10;99.90;;;;;;4825219;29;20068;-88
2022/08/02 10:19:30;;;;;;;4.20;2.70;;;22.60;99.90;;;;;;4864816;29;20049;-94
2022/08/02 10:23:43;;;;;;;6.82;3.17;;;22.10;99.90;;;;;;4796938;29;20074;-93
2022/08/02 10:30:23;;;;;;;4.82;2.22;;;23.50;99.90;;;;;;4806964;29;20137;-91
2022/08/02 10:33:21;;;;;;;5.68;2.33;;;22.00;99.90;;;;;;4822514;29;20053;-90
2022/08/02 10:37:23;;;;;;;4.43;2.75;;;22.90;99.90;;;;;;4753221;29;20066;-91
2022/08/02 10:43:30;;;;;;;;;;;;;;;;;;;;;
2022/08/02 10:50:31;;;;;;;;;;;;;;;;;;;;;
2022/08/02 10:53:37;;;;;;;4.75;2.28;;;23.60;99.90;;;;;;4692985;30;20056;-94
2022/08/02 10:57:00;;;;;;;;;;;;;;;;;;;;;
2022/08/02 11:00:42;;;;;;;;;;;;;;;;;;;;;
2022/08/02 11:07:18;;;;;;;5.05;2.97;;;23.10;99.90;;;;;;4763671;29;20090;-93
2022/08/02 11:10:11;;;;;;;4.65;2.83;;;24.60;99.90;;;;;;4789535;30;20047;-90
2022/08/02 11:12:58;;;;;;;6.53;2.50;;;23.80;99.90;;;;;;4859711;29;20045;-90
2022/08/02 11:15:24;;;;;;;5.82;3.22;;;23.80;99.90;;;;;;4864046;29;20114;-90
2022/08/02 11:18:23;;;;;;;5.47;3.10;;;23.90;99.90;;;;;;4847454;29;20551;-92
2022/08/02 11:22:14;;;;;;;4.13;2.55;;;22.80;99.90;;;;;;4847218;29;20481;-91
2022/08/02 11:28:09;;;;;;;13.32;3.97;;;24.10;99.90;;;;;;4784550;29;20055;-88
2022/08/02 11:31:33;;;;;;;8.35;4.22;;;23.90;99.90;;;;;;4829471;29;20064;-90
2022/08/02 11:34:50;;;;;;;6.15;3.72;;;24.00;99.90;;;;;;4844371;29;20057;-90
2022/08/02 11:37:54;;;;;;;9.43;4.20;;;24.00;99.90;;;;;;4830691;29;20065;-88
2022/08/02 11:41:12;;;;;;;7.50;4.50;;;24.10;99.90;;;;;;4772910;30;20511;-91
2022/08/02 11:43:46;;;;;;;6.68;3.90;;;23.80;99.90;;;;;;4845712;29;20054;-88
2022/08/02 11:46:32;;;;;;;6.65;3.08;;;24.30;99.90;;;;;;4846997;29;20049;-88
2022/08/02 11:52:54;;;;;;;4.35;3.15;;;24.40;99.90;;;;;;4850264;29;20064;-86
2022/08/02 11:56:11;;;;;;;5.20;2.92;;;24.30;99.90;;;;;;4830764;29;20450;-92
2022/08/02 11:59:06;;;;;;;4.47;2.55;;;24.40;99.90;;;;;;4765736;30;20059;-91
2022/08/02 12:02:21;;;;;;;;;;;;;;;;;;;;;
2022/08/02 12:05:25;;;;;;;7.03;4.10;;;24.30;99.90;;;;;;4863259;29;20549;-93
2022/08/02 12:08:24;;;;;;;7.38;3.70;;;24.30;99.90;;;;;;4846999;29;20056;-90
2022/08/02 12:13:53;;;;;;;8.23;4.32;;;24.30;99.90;;;;;;4824392;29;20182;-90
2022/08/02 12:22:35;;;;;;;6.78;3.17;;;25.10;99.90;;;;;;4809363;29;19924;-87
2022/08/02 12:25:24;;;;;;;6.78;3.60;;;23.90;99.90;;;;;;4835753;29;20061;-89
2022/08/02 12:28:14;;;;;;;5.88;3.50;;;24.60;99.90;;;;;;4862466;29;20132;-92
2022/08/02 12:31:40;;;;;;;7.60;3.13;;;24.00;99.90;;;;;;4803348;29;20148;-93
2022/08/02 12:34:16;;;;;;;4.70;2.92;;;22.70;99.90;;;;;;4773434;30;20047;-88
2022/08/02 12:40:45;;;;;;;5.80;3.90;;;23.80;99.90;;;;;;4787330;30;20043;-89
2022/08/02 12:51:09;;;;;;;8.95;4.88;;;23.60;99.90;;;;;;4757879;30;20592;-88
2022/08/02 12:53:49;;;;;;;9.32;4.53;;;23.70;99.90;;;;;;4772245;30;20058;-91
2022/08/02 12:57:05;;;;;;;9.48;5.18;;;24.50;99.90;;;;;;4787788;30;20134;-92
2022/08/02 12:59:49;;;;;;;;;;;;;;;;;;;;;
2022/08/02 13:03:06;;;;;;;13.85;4.75;;;23.80;99.90;;;;;;4751076;30;20056;-90
2022/08/02 13:05:34;;;;;;;9.35;6.07;;;23.00;99.90;;;;;;4790979;29;20069;-93
2022/08/02 13:09:15;;;;;;;8.15;4.88;;;23.90;99.90;;;;;;4841077;29;20092;-92
2022/08/02 13:11:46;;;;;;;8.57;5.32;;;23.80;99.90;;;;;;4823967;29;20145;-87
2022/08/02 13:14:13;;;;;;;9.63;7.10;;;24.00;99.90;;;;;;4830195;29;20565;-88
2022/08/02 13:16:56;;;;;;;;;;;;;;;;;;;;;
2022/08/02 13:22:52;;;;;;;10.27;6.25;;;23.90;99.90;;;;;;4842741;29;20057;-89
2022/08/02 13:25:21;;;;;;;;;;;24.60;99.90;;;;;;4845837;29;20486;-88
2022/08/02 13:27:51;;;;;;;10.80;7.35;;;23.90;99.90;;;;;;4844414;29;19947;-87
2022/08/02 13:34:00;;;;;;;15.82;6.88;;;23.80;99.90;;;;;;4820433;29;20421;-88
2022/08/02 13:36:26;;;;;;;8.27;6.43;;;23.70;99.90;;;;;;4837275;29;20048;-91
2022/08/02 13:39:32;;;;;;;;;;;;;;;;;;;;;
2022/08/02 13:42:24;;;;;;;13.88;6.53;;;23.80;99.90;;;;;;4810764;29;20149;-90
2022/08/02 13:44:50;;;;;;;13.40;6.47;;;23.80;99.90;;;;;;4865007;29;20634;-89
2022/08/02 13:47:26;;;;;;;9.45;5.90;;;22.80;99.90;;;;;;4865228;29;20087;-87
2022/08/02 13:49:55;;;;;;;14.88;6.25;;;23.80;99.90;;;;;;4865286;29;20062;-90
2022/08/02 13:52:29;;;;;;;8.18;5.28;;;23.70;99.90;;;;;;4865485;29;20046;-94
2022/08/02 13:54:55;;;;;;;;;;;23.70;99.90;;;;;;4848895;29;20060;-89
2022/08/02 14:01:31;;;;;;;8.82;5.15;;;23.30;99.90;;;;;;4855770;29;20045;-92
2022/08/02 14:04:14;;;;;;;11.98;7.20;;;23.80;99.90;;;;;;4819161;29;20489;-91
2022/08/02 14:17:13;;;;;;;8.30;6.47;;;23.10;99.90;;;;;;4810611;29;20175;-90
2022/08/02 14:23:36;;;;;;;10.85;6.78;;;23.60;99.90;;;;;;4780307;30;20058;-90
2022/08/02 14:26:08;;;;;;;9.13;5.65;;;22.70;99.90;;;;;;4824710;29;20058;-92
2022/08/02 14:28:35;;;;;;;9.23;5.80;;;23.50;99.90;;;;;;4815041;29;20129;-89
2022/08/02 14:34:48;;;;;;;7.10;5.30;;;23.50;99.90;;;;;;4839207;29;20057;-91
2022/08/02 14:38:03;;;;;;;7.30;5.22;;;23.40;99.90;;;;;;4829416;29;20092;-91
2022/08/02 14:40:29;;;;;;;9.07;5.53;;;23.10;99.90;;;;;;4817568;29;20494;-86
2022/08/02 14:42:55;;;;;;;9.65;5.22;;;23.40;99.90;;;;;;4843947;29;20101;-88
2022/08/02 14:45:22;;;;;;;6.50;4.82;;;23.50;99.90;;;;;;4844347;29;20045;-87
2022/08/02 14:47:48;;;;;;;8.57;4.50;;;23.60;99.90;;;;;;4844650;29;20515;-89
2022/08/02 14:53:28;;;;;;;6.40;4.30;;;23.80;99.90;;;;;;4818128;29;20053;-90
2022/08/02 14:59:53;;;;;;;10.57;3.67;;;24.10;99.90;;;;;;4801280;29;20433;-90
2022/08/02 15:02:25;;;;;;;7.43;3.67;;;23.60;99.90;;;;;;4814592;29;20054;-89
2022/08/02 15:08:21;;;;;;;6.60;3.88;;;25.20;99.90;;;;;;4824579;29;20140;-90
2022/08/02 15:10:49;;;;;;;4.95;3.70;;;25.40;99.90;;;;;;4844305;29;20050;-91
2022/08/02 15:13:38;;;;;;;8.02;3.67;;;25.50;99.90;;;;;;4844002;29;20058;-90
2022/08/02 15:16:14;;;;;;;7.60;3.28;;;25.70;99.90;;;;;;4829403;29;20153;-91
2022/08/02 15:18:57;;;;;;;4.37;3.17;;;25.70;99.90;;;;;;4828807;29;20085;-88
2022/08/02 15:21:29;;;;;;;6.95;3.40;;;25.90;99.90;;;;;;4828813;29;20138;-93
2022/08/02 15:23:58;;;;;;;4.82;3.10;;;26.00;99.90;;;;;;4814408;29;20046;-90
2022/08/02 15:26:32;;;;;;;6.70;4.25;;;26.00;99.90;;;;;;4812967;29;20046;-88
2022/08/02 15:29:27;;;;;;;9.70;3.63;;;26.10;99.90;;;;;;4813715;29;20520;-90
2022/08/02 15:32:18;;;;;;;;;;;25.60;99.90;;;;;;4827094;29;20054;-90
2022/08/02 15:35:25;;;;;;;6.90;3.30;;;25.90;99.90;;;;;;4828144;29;19948;-89
2022/08/02 15:37:53;;;;;;;8.90;3.70;;;25.80;99.90;;;;;;4827341;29;20194;-90
2022/08/02 15:40:23;;;;;;;7.43;3.08;;;25.70;99.90;;;;;;4812742;29;20137;-91
2022/08/02 15:42:52;;;;;;;5.20;2.95;;;25.30;99.90;;;;;;4828829;29;20038;-91
2022/08/02 15:45:28;;;;;;;;;;;;;;;;;;;;;
2022/08/02 15:47:57;;;;;;;6.90;3.05;;;25.80;99.90;;;;;;4834511;29;20117;-91
2022/08/02 15:50:25;;;;;;;7.00;2.65;;;25.20;99.90;;;;;;4850229;29;20049;-88
2022/08/02 15:52:51;;;;;;;11.20;2.85;;;25.80;99.90;;;;;;4829954;29;20458;-87
2022/08/02 15:55:17;;;;;;;8.40;2.60;;;25.90;99.90;;;;;;4827113;29;20050;-89
2022/08/02 15:57:45;;;;;;;4.10;2.88;;;25.80;99.90;;;;;;4843443;29;20045;-87
2022/08/02 16:00:14;;;;;;;4.95;2.90;;;25.80;99.90;;;;;;4828144;29;20157;-90
2022/08/02 16:02:43;;;;;;;6.68;2.95;;;25.80;99.90;;;;;;4827300;29;20121;-87
2022/08/02 16:05:17;;;;;;;3.83;2.60;;;25.80;99.90;;;;;;4844439;29;20050;-87
2022/08/02 16:07:56;;;;;;;;;;;;;;;;;;;;;
2022/08/02 16:10:49;;;;;;;7.82;3.65;;;25.10;99.90;;;;;;4828312;29;20050;-88
2022/08/02 16:16:11;;;;;;;9.13;2.70;;;25.80;99.90;;;;;;4841996;29;20058;-88
2022/08/02 16:18:46;;;;;;;6.32;2.38;;;25.80;99.90;;;;;;4827757;29;20049;-90
2022/08/02 16:21:28;;;;;;;;;;;;;;;;;;;;;
2022/08/02 16:24:34;;;;;;;;;;;;;;;;;;;;;
2022/08/02 16:27:18;;;;;;;4.20;2.25;;;26.00;99.90;;;;;;4844013;29;20053;-89
2022/08/02 16:34:00;;;;;;;5.15;2.05;;;26.10;99.90;;;;;;4843007;29;20137;-92
2022/08/02 16:36:55;;;;;;;3.85;1.73;;;26.40;99.40;;;;;;4811317;29;20076;-90
2022/08/02 16:39:20;;;;;;;;;;;26.40;99.90;;;;;;4811978;29;20075;-90
2022/08/02 16:41:49;;;;;;;9.75;1.90;;;26.40;99.90;;;;;;4827757;29;19924;-89
2022/08/02 16:44:15;;;;;;;10.88;2.00;;;26.30;99.50;;;;;;4843120;29;20053;-88
2022/08/02 16:46:48;;;;;;;8.00;1.98;;;26.20;99.10;;;;;;4827675;29;20050;-90
2022/08/02 16:49:14;;;;;;;11.05;2.00;;;26.00;99.80;;;;;;4843656;29;20186;-88
2022/08/02 16:51:41;;;;;;;6.85;2.08;;;26.00;99.90;;;;;;4842516;29;20125;-89
2022/08/02 16:54:09;;;;;;;5.82;2.13;;;25.80;99.90;;;;;;4811885;29;20586;-90
2022/08/02 16:56:37;;;;;;;6.07;1.92;;;25.50;99.90;;;;;;4842693;29;20132;-90
2022/08/02 16:59:31;;;;;;;8.48;1.73;;;25.40;99.90;;;;;;4843066;29;20402;-91
2022/08/02 17:02:06;;;;;;;5.32;2.50;;;25.30;99.90;;;;;;4827544;29;20049;-88
2022/08/02 17:04:43;;;;;;;5.10;2.50;;;25.20;99.90;;;;;;4842528;29;20521;-89
2022/08/02 17:07:10;;;;;;;8.70;2.50;;;25.20;99.90;;;;;;4827430;29;20042;-94
2022/08/02 17:10:14;;;;;;;9.38;2.70;;;25.10;99.90;;;;;;4827413;29;20053;-91
2022/08/02 17:13:07;;;;;;;8.57;2.33;;;24.30;99.90;;;;;;4822976;29;20051;-89
2022/08/02 17:23:33;;;;;;;8.23;2.60;;;24.90;99.90;;;;;;4748745;30;20056;-89
2022/08/02 17:26:18;;;;;;;8.82;2.63;;;24.90;99.90;;;;;;4733683;30;20508;-89
2022/08/02 17:28:51;;;;;;;8.77;2.35;;;24.60;99.90;;;;;;4756857;30;20063;-92
2022/08/02 17:31:20;;;;;;;13.23;3.42;;;24.60;99.90;;;;;;4754543;30;20055;-88
2022/08/02 17:34:29;;;;;;;15.40;2.83;;;24.60;99.90;;;;;;4810340;29;20093;-91
2022/08/02 17:37:04;;;;;;;16.45;2.97;;;23.90;99.90;;;;;;4824300;29;20061;-91
2022/08/02 17:40:43;;;;;;;12.38;2.38;;;24.70;99.90;;;;;;4808416;29;20074;-91
2022/08/02 17:43:48;;;;;;;12.30;2.72;;;24.40;99.90;;;;;;4832936;29;20106;-91
2022/08/02 17:46:57;;;;;;;9.80;3.25;;;24.00;99.90;;;;;;4807940;29;20063;-90
2022/08/02 17:50:39;;;;;;;9.50;2.53;;;24.40;99.90;;;;;;4823967;29;20133;-89
2022/08/02 17:53:28;;;;;;;8.55;2.67;;;24.50;99.90;;;;;;4811546;29;20138;-90
2022/08/02 17:59:32;;;;;;;14.50;2.80;;;23.70;99.90;;;;;;4823610;29;20051;-91
2022/08/02 18:01:59;;;;;;;10.05;2.22;;;24.30;99.90;;;;;;4822971;29;20047;-89
2022/08/02 18:04:27;;;;;;;9.75;1.88;;;24.30;99.90;;;;;;4809167;29;20424;-88
2022/08/02 18:07:07;;;;;;;;;;;;;;;;;;;;;
2022/08/02 18:10:42;;;;;;;;;;;;;;;;;;;;;
2022/08/02 18:13:23;;;;;;;;;;;;;;;;;;;;;
2022/08/02 18:17:03;;;;;;;9.27;1.95;;;24.20;99.90;;;;;;4804293;29;20598;-90
2022/08/02 18:19:50;;;;;;;13.25;3.03;;;24.10;99.90;;;;;;4774646;30;20043;-90
2022/08/02 18:30:46;;;;;;;13.95;2.75;;;23.90;99.90;;;;;;4760607;30;20067;-90
2022/08/02 18:33:32;;;;;;;11.00;3.47;;;23.80;99.90;;;;;;4729385;30;20053;-91
2022/08/02 19:05:20;;;;;;;11.65;2.10;;;22.70;99.90;;;;;;4759162;29;20059;-90
2022/08/02 19:13:02;;;;;;;;;;;;;;;;;;;;;
2022/08/02 19:19:05;;;;;;;;;;;;;;;;;;;;;
2022/08/02 19:25:17;;;;;;;16.95;2.13;;;22.10;99.90;;;;;;4786450;29;20050;-90
2022/08/02 19:28:14;;;;;;;18.45;2.42;;;21.90;99.90;;;;;;4826161;29;20057;-90
2022/08/02 19:34:04;;;;;;;5.70;1.90;;;21.80;99.90;;;;;;4818609;29;20058;-90
2022/08/02 19:36:44;;;;;;;;;;;;;;;;;;;;;
2022/08/02 19:39:23;;;;;;;10.18;2.05;;;21.60;99.90;;;;;;4825754;29;20049;-90
2022/08/02 19:41:51;;;;;;;12.82;3.28;;;21.60;99.90;;;;;;4824629;29;20084;-90
2022/08/02 19:44:20;;;;;;;12.70;1.90;;;21.60;99.90;;;;;;4825338;29;20474;-90
2022/08/02 19:46:49;;;;;;;14.48;3.10;;;21.50;99.90;;;;;;4824758;29;20054;-90
2022/08/02 19:49:17;;;;;;;12.43;2.63;;;21.40;99.90;;;;;;4840811;29;20038;-90
2022/08/02 19:52:16;;;;;;;;;;;;;;;;;;;;;
2022/08/02 19:54:52;;;;;;;;;;;;;;;;;;;;;
2022/08/02 19:58:35;;;;;;;;;;;;;;;;;;;;;
2022/08/02 20:01:18;;;;;;;6.55;1.77;;;20.90;99.90;;;;;;4825405;29;20107;-90
2022/08/02 20:04:25;;;;;;;16.98;3.05;;;21.10;99.90;;;;;;4811461;29;20371;-91
2022/08/02 20:07:05;;;;;;;;;;;;;;;;;;;;;
2022/08/02 20:12:53;;;;;;;9.02;2.15;;;21.00;99.90;;;;;;4825446;29;20415;-88
2022/08/02 20:16:15;;;;;;;;;;;;;;;;;;;;;
2022/08/02 20:19:14;;;;;;;;;;;;;;;;;;;;;
2022/08/02 20:22:12;;;;;;;9.10;2.28;;;20.80;99.90;;;;;;4825442;29;20062;-90
2022/08/02 20:24:41;;;;;;;10.80;2.72;;;20.80;99.90;;;;;;4825727;29;20138;-90
2022/08/02 20:27:43;;;;;;;;;;;;;;;;;;;;;
2022/08/02 20:34:28;;;;;;;18.13;1.85;;;20.60;99.90;;;;;;4834339;29;20050;-90
2022/08/02 20:37:20;;;;;;;10.02;2.13;;;19.60;99.90;;;;;;4824818;29;20073;-91
2022/08/02 20:40:11;;;;;;;12.45;1.80;;;20.60;99.90;;;;;;4825824;29;20202;-90
2022/08/02 20:42:52;;;;;;;;;;;;;;;;;;;;;
2022/08/02 20:49:25;;;;;;;8.50;2.22;;;20.50;99.90;;;;;;4917464;24;20418;-90
2022/08/02 20:52:03;;;;;;;;;;;;;;;;;;;;;
2022/08/02 20:55:17;;;;;;;;;;;;;;;;;;;;;
2022/08/02 20:58:27;;;;;;;7.43;2.05;;;20.50;99.90;;;;;;4842428;29;20054;-91
2022/08/02 21:01:03;;;;;;;;;;;;;;;;;;;;;
2022/08/02 21:07:28;;;;;;;6.93;2.78;;;20.20;99.90;;;;;;4826271;29;20050;-91
2022/08/02 21:11:02;;;;;;;;;;;;;;;;;;;;;
2022/08/02 21:20:53;;;;;;;;;;;;;;;;;;;;;
2022/08/02 21:23:49;;;;;;;16.77;2.63;;;20.00;99.90;;;;;;4839438;29;20121;-90
2022/08/02 21:27:10;;;;;;;;;;;;;;;;;;;;;
2022/08/02 21:32:33;;;;;;;10.43;2.83;;;20.30;99.90;;;;;;4838910;29;20042;-91
2022/08/02 21:35:53;;;;;;;;;;;;;;;;;;;;;
2022/08/02 21:38:26;;;;;;;;;;;;;;;;;;;;;
2022/08/02 21:41:07;;;;;;;10.57;1.58;;;19.80;99.90;;;;;;4842391;29;20072;-90
2022/08/02 21:44:00;;;;;;;7.15;2.00;;;19.00;99.90;;;;;;4842998;29;20053;-90
2022/08/02 21:46:36;;;;;;;11.02;1.98;;;19.80;99.90;;;;;;4841928;29;20046;-90
2022/08/02 21:49:35;;;;;;;;;;;;;;;;;;;;;
2022/08/02 21:55:53;;;;;;;;;;;;;;;;;;;;;
2022/08/02 21:58:51;;;;;;;;;;;;;;;;;;;;;
2022/08/02 22:01:47;;;;;;;;;;;;;;;;;;;;;
2022/08/02 22:04:36;;;;;;;;;;;;;;;;;;;;;
2022/08/02 22:08:09;;;;;;;8.85;1.80;;;19.50;99.90;;;;;;4846296;29;20050;-91
2022/08/02 22:11:40;;;;;;;9.85;1.98;;;19.40;99.90;;;;;;4845920;29;20077;-90
2022/08/02 22:15:21;;;;;;;;;;;;;;;;;;;;;
2022/08/02 22:36:12;;;;;;;;;;;;;;;;;;;;;
2022/08/02 22:46:32;;;;;;;10.57;2.33;;;19.30;99.90;;;;;;4784899;29;20054;-91
2022/08/02 22:53:38;;;;;;;;;;;;;;;;;;;;;
2022/08/02 22:56:35;;;;;;;;;;;;;;;;;;;;;
2022/08/02 23:02:56;;;;;;;10.80;2.25;;;20.80;99.90;;;;;;4795439;29;20054;-90
2022/08/02 23:05:51;;;;;;;9.77;2.35;;;19.10;99.90;;;;;;4810689;29;20107;-90
2022/08/02 23:09:02;;;;;;;6.57;2.03;;;19.20;99.90;;;;;;4844776;29;20505;-91
2022/08/02 23:13:00;;;;;;;;;;;;;;;;;;;;;
2022/08/02 23:22:12;;;;;;;9.75;2.67;;;19.10;99.90;;;;;;4844694;29;20094;-89
2022/08/02 23:24:46;;;;;;;10.13;2.08;;;19.10;99.90;;;;;;4806424;29;20057;-91
2022/08/02 23:28:06;;;;;;;9.05;2.40;;;19.10;99.90;;;;;;4859923;29;20133;-91
2022/08/02 23:30:46;;;;;;;8.27;2.47;;;19.10;99.90;;;;;;4843569;29;20045;-90
2022/08/02 23:34:12;;;;;;;;;;;;;;;;;;;;;
2022/08/02 23:38:02;;;;;;;;;;;;;;;;;;;;;
2022/08/02 23:52:37;;;;;;;;;;;;;;;;;;;;;
2022/08/02 23:56:07;;;;;;;;;;;;;;;;;;;;;
